sim
Sign-in with your pilot id or email,
or register
Callsign
Passwort

Schedule Details

Flight Number: OEO7119
Departure: London Heathrow Airport (EGLL) at 09:30
Arrival: Mumbai Chhatrapati Shivaji International Airport (VABB) at 18:10

Weather Information
Getting current METAR information for EGLL 191820Z AUTO 27015KT 9999 NCD 19/07 Q1016 NOSIG
Getting current METAR information for VABB 191800Z 27007KT 3500 HZ SCT020 28/25 Q1010 NOSIG

Schedule Frequency

Route Map